sensor_id;sensor_type;location;lat;lon;timestamp;P1;durP1;ratioP1;P2;durP2;ratioP2
4986;SDS011;12674;51.500;7.552;2023-02-28T00:00:56;2.60;;;1.80;;
4986;SDS011;12674;51.500;7.552;2023-02-28T00:02:59;3.70;;;2.57;;
4986;SDS011;12674;51.500;7.552;2023-02-28T00:05:03;4.30;;;1.73;;
4986;SDS011;12674;51.500;7.552;2023-02-28T00:07:06;4.03;;;2.07;;
4986;SDS011;12674;51.500;7.552;2023-02-28T00:09:11;9.60;;;2.57;;
4986;SDS011;12674;51.500;7.552;2023-02-28T00:11:14;4.33;;;2.07;;
4986;SDS011;12674;51.500;7.552;2023-02-28T00:13:18;2.43;;;2.00;;
4986;SDS011;12674;51.500;7.552;2023-02-28T00:15:21;5.47;;;2.20;;
4986;SDS011;12674;51.500;7.552;2023-02-28T00:17:24;5.23;;;2.93;;
4986;SDS011;12674;51.500;7.552;2023-02-28T00:19:27;1.93;;;1.60;;
4986;SDS011;12674;51.500;7.552;2023-02-28T00:21:31;4.53;;;2.20;;
4986;SDS011;12674;51.500;7.552;2023-02-28T00:23:34;3.90;;;2.10;;
4986;SDS011;12674;51.500;7.552;2023-02-28T00:25:39;6.50;;;2.70;;
4986;SDS011;12674;51.500;7.552;2023-02-28T00:27:41;3.60;;;2.17;;
4986;SDS011;12674;51.500;7.552;2023-02-28T00:29:46;2.70;;;2.30;;
4986;SDS011;12674;51.500;7.552;2023-02-28T00:31:49;3.97;;;2.63;;
4986;SDS011;12674;51.500;7.552;2023-02-28T00:33:53;5.27;;;2.97;;
4986;SDS011;12674;51.500;7.552;2023-02-28T00:36:05;2.50;;;2.30;;
4986;SDS011;12674;51.500;7.552;2023-02-28T00:38:12;2.80;;;2.50;;
4986;SDS011;12674;51.500;7.552;2023-02-28T00:40:16;4.47;;;2.60;;
4986;SDS011;12674;51.500;7.552;2023-02-28T00:42:20;4.40;;;2.70;;
4986;SDS011;12674;51.500;7.552;2023-02-28T00:44:23;3.20;;;2.80;;
4986;SDS011;12674;51.500;7.552;2023-02-28T00:46:27;4.30;;;2.50;;
4986;SDS011;12674;51.500;7.552;2023-02-28T00:48:32;7.20;;;2.70;;
4986;SDS011;12674;51.500;7.552;2023-02-28T00:50:35;9.83;;;2.90;;
4986;SDS011;12674;51.500;7.552;2023-02-28T00:52:38;4.43;;;2.83;;
4986;SDS011;12674;51.500;7.552;2023-02-28T00:54:41;4.40;;;2.97;;
4986;SDS011;12674;51.500;7.552;2023-02-28T00:56:44;5.13;;;3.17;;
4986;SDS011;12674;51.500;7.552;2023-02-28T00:58:49;3.00;;;2.27;;
4986;SDS011;12674;51.500;7.552;2023-02-28T01:00:53;2.50;;;2.30;;
4986;SDS011;12674;51.500;7.552;2023-02-28T01:02:57;3.57;;;2.40;;
4986;SDS011;12674;51.500;7.552;2023-02-28T01:05:00;3.17;;;2.27;;
4986;SDS011;12674;51.500;7.552;2023-02-28T01:07:04;2.47;;;2.00;;
4986;SDS011;12674;51.500;7.552;2023-02-28T01:09:07;4.63;;;2.30;;
4986;SDS011;12674;51.500;7.552;2023-02-28T01:11:11;5.43;;;2.30;;
4986;SDS011;12674;51.500;7.552;2023-02-28T01:13:16;5.60;;;2.13;;
4986;SDS011;12674;51.500;7.552;2023-02-28T01:15:20;3.00;;;2.40;;
4986;SDS011;12674;51.500;7.552;2023-02-28T01:17:24;5.03;;;3.20;;
4986;SDS011;12674;51.500;7.552;2023-02-28T01:19:27;4.20;;;2.23;;
4986;SDS011;12674;51.500;7.552;2023-02-28T01:21:30;5.63;;;2.50;;
4986;SDS011;12674;51.500;7.552;2023-02-28T01:23:33;5.10;;;2.63;;
4986;SDS011;12674;51.500;7.552;2023-02-28T01:25:37;5.00;;;2.17;;
4986;SDS011;12674;51.500;7.552;2023-02-28T01:27:40;2.30;;;2.10;;
4986;SDS011;12674;51.500;7.552;2023-02-28T01:29:43;6.13;;;3.10;;
4986;SDS011;12674;51.500;7.552;2023-02-28T01:31:48;6.83;;;2.70;;
4986;SDS011;12674;51.500;7.552;2023-02-28T01:33:51;4.30;;;2.47;;
4986;SDS011;12674;51.500;7.552;2023-02-28T01:35:57;2.23;;;2.00;;
4986;SDS011;12674;51.500;7.552;2023-02-28T01:38:01;3.47;;;2.57;;
4986;SDS011;12674;51.500;7.552;2023-02-28T01:40:21;3.00;;;2.60;;
4986;SDS011;12674;51.500;7.552;2023-02-28T01:42:24;4.83;;;2.23;;
4986;SDS011;12674;51.500;7.552;2023-02-28T01:47:12;4.17;;;2.60;;
4986;SDS011;12674;51.500;7.552;2023-02-28T01:49:16;4.83;;;2.50;;
4986;SDS011;12674;51.500;7.552;2023-02-28T01:51:20;4.60;;;2.70;;
4986;SDS011;12674;51.500;7.552;2023-02-28T01:53:26;3.30;;;2.80;;
4986;SDS011;12674;51.500;7.552;2023-02-28T01:55:33;3.90;;;2.90;;
4986;SDS011;12674;51.500;7.552;2023-02-28T01:57:37;3.33;;;2.50;;
4986;SDS011;12674;51.500;7.552;2023-02-28T01:59:42;4.00;;;3.13;;
4986;SDS011;12674;51.500;7.552;2023-02-28T02:01:48;3.40;;;2.50;;
4986;SDS011;12674;51.500;7.552;2023-02-28T02:03:55;3.20;;;2.90;;
4986;SDS011;12674;51.500;7.552;2023-02-28T02:06:00;4.40;;;2.40;;
4986;SDS011;12674;51.500;7.552;2023-02-28T02:08:05;4.93;;;2.33;;
4986;SDS011;12674;51.500;7.552;2023-02-28T02:10:11;4.40;;;2.43;;
4986;SDS011;12674;51.500;7.552;2023-02-28T02:12:23;7.43;;;2.93;;
4986;SDS011;12674;51.500;7.552;2023-02-28T02:14:32;3.87;;;2.47;;
4986;SDS011;12674;51.500;7.552;2023-02-28T02:16:45;5.47;;;2.93;;
4986;SDS011;12674;51.500;7.552;2023-02-28T02:18:59;2.77;;;2.57;;
4986;SDS011;12674;51.500;7.552;2023-02-28T02:21:22;3.97;;;2.70;;
4986;SDS011;12674;51.500;7.552;2023-02-28T02:26:12;2.77;;;2.20;;
4986;SDS011;12674;51.500;7.552;2023-02-28T02:28:46;4.60;;;2.73;;
4986;SDS011;12674;51.500;7.552;2023-02-28T02:31:01;10.90;;;3.10;;
4986;SDS011;12674;51.500;7.552;2023-02-28T02:33:33;6.53;;;2.67;;
4986;SDS011;12674;51.500;7.552;2023-02-28T02:35:51;3.30;;;2.73;;
4986;SDS011;12674;51.500;7.552;2023-02-28T02:37:58;2.87;;;2.47;;
4986;SDS011;12674;51.500;7.552;2023-02-28T02:40:04;2.93;;;2.70;;
4986;SDS011;12674;51.500;7.552;2023-02-28T02:42:13;3.23;;;2.50;;
4986;SDS011;12674;51.500;7.552;2023-02-28T02:44:20;4.70;;;2.93;;
4986;SDS011;12674;51.500;7.552;2023-02-28T02:46:26;5.00;;;2.93;;
4986;SDS011;12674;51.500;7.552;2023-02-28T02:48:33;2.60;;;2.03;;
4986;SDS011;12674;51.500;7.552;2023-02-28T02:50:38;1.80;;;1.70;;
4986;SDS011;12674;51.500;7.552;2023-02-28T02:52:46;2.10;;;1.90;;
4986;SDS011;12674;51.500;7.552;2023-02-28T02:54:55;5.43;;;2.73;;
4986;SDS011;12674;51.500;7.552;2023-02-28T02:57:00;2.30;;;2.10;;
4986;SDS011;12674;51.500;7.552;2023-02-28T02:59:07;4.30;;;2.00;;
4986;SDS011;12674;51.500;7.552;2023-02-28T03:01:14;3.63;;;2.30;;
4986;SDS011;12674;51.500;7.552;2023-02-28T03:03:20;2.77;;;2.30;;
4986;SDS011;12674;51.500;7.552;2023-02-28T03:05:32;4.10;;;2.73;;
4986;SDS011;12674;51.500;7.552;2023-02-28T03:07:37;2.90;;;2.33;;
4986;SDS011;12674;51.500;7.552;2023-02-28T03:09:49;8.20;;;3.07;;
4986;SDS011;12674;51.500;7.552;2023-02-28T03:11:54;4.90;;;2.77;;
4986;SDS011;12674;51.500;7.552;2023-02-28T03:14:22;5.13;;;2.40;;
4986;SDS011;12674;51.500;7.552;2023-02-28T03:16:31;2.40;;;2.20;;
4986;SDS011;12674;51.500;7.552;2023-02-28T03:18:40;2.70;;;2.40;;
4986;SDS011;12674;51.500;7.552;2023-02-28T03:20:47;2.53;;;2.07;;
4986;SDS011;12674;51.500;7.552;2023-02-28T03:22:59;4.53;;;2.27;;
4986;SDS011;12674;51.500;7.552;2023-02-28T03:25:08;3.40;;;1.80;;
4986;SDS011;12674;51.500;7.552;2023-02-28T03:27:16;2.60;;;2.13;;
4986;SDS011;12674;51.500;7.552;2023-02-28T03:29:22;2.10;;;1.90;;
4986;SDS011;12674;51.500;7.552;2023-02-28T03:31:30;5.43;;;2.53;;
4986;SDS011;12674;51.500;7.552;2023-02-28T03:33:35;3.73;;;2.17;;
4986;SDS011;12674;51.500;7.552;2023-02-28T03:35:41;4.03;;;2.53;;
4986;SDS011;12674;51.500;7.552;2023-02-28T03:37:48;3.33;;;2.27;;
4986;SDS011;12674;51.500;7.552;2023-02-28T03:39:54;5.73;;;2.50;;
4986;SDS011;12674;51.500;7.552;2023-02-28T03:42:02;2.90;;;2.30;;
4986;SDS011;12674;51.500;7.552;2023-02-28T03:44:10;2.40;;;2.17;;
4986;SDS011;12674;51.500;7.552;2023-02-28T03:46:17;2.80;;;2.60;;
4986;SDS011;12674;51.500;7.552;2023-02-28T03:48:23;4.40;;;2.07;;
4986;SDS011;12674;51.500;7.552;2023-02-28T03:50:31;2.60;;;2.17;;
4986;SDS011;12674;51.500;7.552;2023-02-28T03:52:38;6.17;;;2.10;;
4986;SDS011;12674;51.500;7.552;2023-02-28T03:54:47;2.97;;;2.40;;
4986;SDS011;12674;51.500;7.552;2023-02-28T03:56:53;3.13;;;2.10;;
4986;SDS011;12674;51.500;7.552;2023-02-28T03:59:02;2.80;;;2.60;;
4986;SDS011;12674;51.500;7.552;2023-02-28T04:01:07;3.73;;;2.10;;
4986;SDS011;12674;51.500;7.552;2023-02-28T04:03:12;1.77;;;1.67;;
4986;SDS011;12674;51.500;7.552;2023-02-28T04:05:16;4.30;;;2.00;;
4986;SDS011;12674;51.500;7.552;2023-02-28T04:07:19;1.83;;;1.70;;
4986;SDS011;12674;51.500;7.552;2023-02-28T04:09:22;4.87;;;3.33;;
4986;SDS011;12674;51.500;7.552;2023-02-28T04:11:27;4.30;;;2.20;;
4986;SDS011;12674;51.500;7.552;2023-02-28T04:13:33;2.97;;;2.03;;
4986;SDS011;12674;51.500;7.552;2023-02-28T04:15:37;1.87;;;1.73;;
4986;SDS011;12674;51.500;7.552;2023-02-28T04:17:40;2.20;;;2.00;;
4986;SDS011;12674;51.500;7.552;2023-02-28T04:19:43;5.53;;;2.10;;
4986;SDS011;12674;51.500;7.552;2023-02-28T04:21:46;3.47;;;2.50;;
4986;SDS011;12674;51.500;7.552;2023-02-28T04:23:50;3.87;;;2.83;;
4986;SDS011;12674;51.500;7.552;2023-02-28T04:25:55;2.60;;;2.33;;
4986;SDS011;12674;51.500;7.552;2023-02-28T04:27:58;2.87;;;2.20;;
4986;SDS011;12674;51.500;7.552;2023-02-28T04:30:01;3.20;;;2.03;;
4986;SDS011;12674;51.500;7.552;2023-02-28T04:32:06;3.33;;;2.30;;
4986;SDS011;12674;51.500;7.552;2023-02-28T04:34:09;2.70;;;2.50;;
4986;SDS011;12674;51.500;7.552;2023-02-28T04:36:13;5.07;;;2.27;;
4986;SDS011;12674;51.500;7.552;2023-02-28T04:38:18;2.63;;;2.00;;
4986;SDS011;12674;51.500;7.552;2023-02-28T04:40:21;5.30;;;2.43;;
4986;SDS011;12674;51.500;7.552;2023-02-28T04:42:25;6.73;;;2.60;;
4986;SDS011;12674;51.500;7.552;2023-02-28T04:44:28;6.00;;;2.07;;
4986;SDS011;12674;51.500;7.552;2023-02-28T04:46:31;5.13;;;2.40;;
4986;SDS011;12674;51.500;7.552;2023-02-28T04:48:35;3.57;;;3.07;;
4986;SDS011;12674;51.500;7.552;2023-02-28T04:50:39;2.40;;;2.30;;
4986;SDS011;12674;51.500;7.552;2023-02-28T04:52:42;3.80;;;2.90;;
4986;SDS011;12674;51.500;7.552;2023-02-28T04:54:45;5.37;;;2.90;;
4986;SDS011;12674;51.500;7.552;2023-02-28T04:56:49;4.07;;;2.67;;
4986;SDS011;12674;51.500;7.552;2023-02-28T04:58:53;2.90;;;2.60;;
4986;SDS011;12674;51.500;7.552;2023-02-28T05:01:01;5.00;;;2.70;;
4986;SDS011;12674;51.500;7.552;2023-02-28T05:03:04;4.50;;;3.00;;
4986;SDS011;12674;51.500;7.552;2023-02-28T05:05:08;3.93;;;2.90;;
4986;SDS011;12674;51.500;7.552;2023-02-28T05:07:12;5.40;;;2.80;;
4986;SDS011;12674;51.500;7.552;2023-02-28T05:09:15;2.93;;;2.50;;
4986;SDS011;12674;51.500;7.552;2023-02-28T05:11:18;4.13;;;3.10;;
4986;SDS011;12674;51.500;7.552;2023-02-28T05:13:22;3.70;;;3.13;;
4986;SDS011;12674;51.500;7.552;2023-02-28T05:15:26;4.80;;;3.03;;
4986;SDS011;12674;51.500;7.552;2023-02-28T05:17:29;5.23;;;3.30;;
4986;SDS011;12674;51.500;7.552;2023-02-28T05:19:31;5.73;;;3.50;;
4986;SDS011;12674;51.500;7.552;2023-02-28T05:21:36;7.27;;;3.50;;
4986;SDS011;12674;51.500;7.552;2023-02-28T05:23:40;3.20;;;2.53;;
4986;SDS011;12674;51.500;7.552;2023-02-28T05:25:44;3.53;;;3.10;;
4986;SDS011;12674;51.500;7.552;2023-02-28T05:27:47;4.40;;;2.90;;
4986;SDS011;12674;51.500;7.552;2023-02-28T05:29:50;3.40;;;3.10;;
4986;SDS011;12674;51.500;7.552;2023-02-28T05:31:53;7.23;;;3.10;;
4986;SDS011;12674;51.500;7.552;2023-02-28T05:33:56;8.77;;;3.73;;
4986;SDS011;12674;51.500;7.552;2023-02-28T05:36:00;4.70;;;3.40;;
4986;SDS011;12674;51.500;7.552;2023-02-28T05:38:04;5.63;;;3.60;;
4986;SDS011;12674;51.500;7.552;2023-02-28T05:40:08;3.63;;;3.33;;
4986;SDS011;12674;51.500;7.552;2023-02-28T05:42:12;6.53;;;3.90;;
4986;SDS011;12674;51.500;7.552;2023-02-28T05:44:15;6.70;;;3.93;;
4986;SDS011;12674;51.500;7.552;2023-02-28T05:46:18;3.43;;;2.90;;
4986;SDS011;12674;51.500;7.552;2023-02-28T05:48:23;4.80;;;3.60;;
4986;SDS011;12674;51.500;7.552;2023-02-28T05:50:27;6.00;;;3.07;;
4986;SDS011;12674;51.500;7.552;2023-02-28T05:52:31;5.60;;;3.50;;
4986;SDS011;12674;51.500;7.552;2023-02-28T05:54:59;5.00;;;3.43;;
4986;SDS011;12674;51.500;7.552;2023-02-28T05:57:01;4.13;;;3.00;;
4986;SDS011;12674;51.500;7.552;2023-02-28T05:59:13;6.27;;;3.83;;
4986;SDS011;12674;51.500;7.552;2023-02-28T06:01:19;5.00;;;3.77;;
4986;SDS011;12674;51.500;7.552;2023-02-28T06:03:25;6.83;;;3.10;;
4986;SDS011;12674;51.500;7.552;2023-02-28T06:05:28;7.93;;;3.70;;
4986;SDS011;12674;51.500;7.552;2023-02-28T06:07:31;3.07;;;2.77;;
4986;SDS011;12674;51.500;7.552;2023-02-28T06:09:35;3.47;;;3.17;;
4986;SDS011;12674;51.500;7.552;2023-02-28T06:11:40;10.43;;;3.30;;
4986;SDS011;12674;51.500;7.552;2023-02-28T06:13:43;5.53;;;3.27;;
4986;SDS011;12674;51.500;7.552;2023-02-28T06:15:46;4.07;;;3.37;;
4986;SDS011;12674;51.500;7.552;2023-02-28T06:17:49;9.07;;;3.60;;
4986;SDS011;12674;51.500;7.552;2023-02-28T06:19:53;6.83;;;4.17;;
4986;SDS011;12674;51.500;7.552;2023-02-28T06:21:56;3.53;;;3.23;;
4986;SDS011;12674;51.500;7.552;2023-02-28T06:24:01;6.77;;;3.77;;
4986;SDS011;12674;51.500;7.552;2023-02-28T06:26:04;7.00;;;3.73;;
4986;SDS011;12674;51.500;7.552;2023-02-28T06:28:09;4.60;;;3.43;;
4986;SDS011;12674;51.500;7.552;2023-02-28T06:30:12;6.30;;;3.33;;
4986;SDS011;12674;51.500;7.552;2023-02-28T06:32:16;3.97;;;3.00;;
4986;SDS011;12674;51.500;7.552;2023-02-28T06:34:19;3.80;;;3.10;;
4986;SDS011;12674;51.500;7.552;2023-02-28T06:36:22;4.43;;;2.83;;
4986;SDS011;12674;51.500;7.552;2023-02-28T06:38:25;6.27;;;3.20;;
4986;SDS011;12674;51.500;7.552;2023-02-28T06:40:28;5.60;;;3.93;;
4986;SDS011;12674;51.500;7.552;2023-02-28T06:42:33;7.23;;;3.40;;
4986;SDS011;12674;51.500;7.552;2023-02-28T06:44:37;8.30;;;3.27;;
4986;SDS011;12674;51.500;7.552;2023-02-28T06:46:41;3.80;;;3.47;;
4986;SDS011;12674;51.500;7.552;2023-02-28T06:48:44;11.00;;;3.17;;
4986;SDS011;12674;51.500;7.552;2023-02-28T06:50:48;3.73;;;3.10;;
4986;SDS011;12674;51.500;7.552;2023-02-28T06:52:51;20.40;;;3.50;;
4986;SDS011;12674;51.500;7.552;2023-02-28T06:54:56;4.40;;;2.90;;
4986;SDS011;12674;51.500;7.552;2023-02-28T06:57:02;9.90;;;3.60;;
4986;SDS011;12674;51.500;7.552;2023-02-28T06:59:06;7.73;;;3.57;;
4986;SDS011;12674;51.500;7.552;2023-02-28T07:01:11;11.17;;;3.57;;
4986;SDS011;12674;51.500;7.552;2023-02-28T07:03:15;4.00;;;3.50;;
4986;SDS011;12674;51.500;7.552;2023-02-28T07:05:19;10.80;;;3.40;;
4986;SDS011;12674;51.500;7.552;2023-02-28T07:07:22;5.70;;;3.77;;
4986;SDS011;12674;51.500;7.552;2023-02-28T07:09:26;8.17;;;5.00;;
4986;SDS011;12674;51.500;7.552;2023-02-28T07:11:31;7.27;;;4.37;;
4986;SDS011;12674;51.500;7.552;2023-02-28T07:13:34;8.40;;;3.77;;
4986;SDS011;12674;51.500;7.552;2023-02-28T07:15:37;8.57;;;3.43;;
4986;SDS011;12674;51.500;7.552;2023-02-28T07:17:45;3.53;;;2.90;;
4986;SDS011;12674;51.500;7.552;2023-02-28T07:19:48;3.40;;;3.00;;
4986;SDS011;12674;51.500;7.552;2023-02-28T07:21:51;3.13;;;2.83;;
4986;SDS011;12674;51.500;7.552;2023-02-28T07:23:55;3.97;;;3.43;;
4986;SDS011;12674;51.500;7.552;2023-02-28T07:25:58;5.27;;;2.80;;
4986;SDS011;12674;51.500;7.552;2023-02-28T07:28:01;5.80;;;3.80;;
4986;SDS011;12674;51.500;7.552;2023-02-28T07:30:05;15.73;;;4.23;;
4986;SDS011;12674;51.500;7.552;2023-02-28T07:32:09;8.10;;;5.03;;
4986;SDS011;12674;51.500;7.552;2023-02-28T07:34:13;8.23;;;4.57;;
4986;SDS011;12674;51.500;7.552;2023-02-28T07:36:17;7.67;;;4.07;;
4986;SDS011;12674;51.500;7.552;2023-02-28T07:38:21;13.33;;;4.67;;
4986;SDS011;12674;51.500;7.552;2023-02-28T07:40:24;8.50;;;4.70;;
4986;SDS011;12674;51.500;7.552;2023-02-28T07:42:27;7.50;;;4.63;;
4986;SDS011;12674;51.500;7.552;2023-02-28T07:44:31;8.93;;;4.53;;
4986;SDS011;12674;51.500;7.552;2023-02-28T07:46:34;7.73;;;3.90;;
4986;SDS011;12674;51.500;7.552;2023-02-28T07:48:38;12.83;;;6.70;;
4986;SDS011;12674;51.500;7.552;2023-02-28T07:50:42;11.10;;;6.60;;
4986;SDS011;12674;51.500;7.552;2023-02-28T07:52:45;12.80;;;5.50;;
4986;SDS011;12674;51.500;7.552;2023-02-28T07:54:48;21.83;;;8.10;;
4986;SDS011;12674;51.500;7.552;2023-02-28T07:56:51;14.43;;;9.00;;
4986;SDS011;12674;51.500;7.552;2023-02-28T07:58:54;8.53;;;6.47;;
4986;SDS011;12674;51.500;7.552;2023-02-28T08:01:04;15.37;;;6.20;;
4986;SDS011;12674;51.500;7.552;2023-02-28T08:03:08;8.17;;;4.90;;
4986;SDS011;12674;51.500;7.552;2023-02-28T08:05:11;6.60;;;4.27;;
4986;SDS011;12674;51.500;7.552;2023-02-28T08:07:16;18.53;;;4.40;;
4986;SDS011;12674;51.500;7.552;2023-02-28T08:09:20;4.90;;;3.60;;
4986;SDS011;12674;51.500;7.552;2023-02-28T08:11:23;5.03;;;2.63;;
4986;SDS011;12674;51.500;7.552;2023-02-28T08:13:26;6.90;;;3.13;;
4986;SDS011;12674;51.500;7.552;2023-02-28T08:15:29;5.27;;;3.70;;
4986;SDS011;12674;51.500;7.552;2023-02-28T08:17:32;10.27;;;4.70;;
4986;SDS011;12674;51.500;7.552;2023-02-28T08:19:35;7.77;;;4.57;;
4986;SDS011;12674;51.500;7.552;2023-02-28T08:21:38;6.37;;;4.30;;
4986;SDS011;12674;51.500;7.552;2023-02-28T08:23:43;5.93;;;4.20;;
4986;SDS011;12674;51.500;7.552;2023-02-28T08:25:52;10.73;;;4.40;;
4986;SDS011;12674;51.500;7.552;2023-02-28T08:27:56;15.07;;;4.70;;
4986;SDS011;12674;51.500;7.552;2023-02-28T08:30:00;7.57;;;4.53;;
4986;SDS011;12674;51.500;7.552;2023-02-28T08:32:04;5.00;;;2.93;;
4986;SDS011;12674;51.500;7.552;2023-02-28T08:34:20;7.20;;;3.37;;
4986;SDS011;12674;51.500;7.552;2023-02-28T08:36:24;3.33;;;2.40;;
4986;SDS011;12674;51.500;7.552;2023-02-28T08:38:30;5.80;;;2.60;;
4986;SDS011;12674;51.500;7.552;2023-02-28T08:40:34;4.30;;;3.07;;
4986;SDS011;12674;51.500;7.552;2023-02-28T08:42:37;6.87;;;3.03;;
4986;SDS011;12674;51.500;7.552;2023-02-28T08:44:40;6.40;;;2.73;;
4986;SDS011;12674;51.500;7.552;2023-02-28T08:46:43;7.27;;;3.50;;
4986;SDS011;12674;51.500;7.552;2023-02-28T08:48:46;3.43;;;2.63;;
4986;SDS011;12674;51.500;7.552;2023-02-28T08:50:55;5.60;;;3.10;;
4986;SDS011;12674;51.500;7.552;2023-02-28T08:53:08;3.50;;;2.60;;
4986;SDS011;12674;51.500;7.552;2023-02-28T08:55:11;4.40;;;3.00;;
4986;SDS011;12674;51.500;7.552;2023-02-28T08:57:15;7.97;;;2.67;;
4986;SDS011;12674;51.500;7.552;2023-02-28T08:59:19;10.07;;;2.63;;
4986;SDS011;12674;51.500;7.552;2023-02-28T09:01:22;6.97;;;2.20;;
4986;SDS011;12674;51.500;7.552;2023-02-28T09:03:26;4.47;;;2.30;;
4986;SDS011;12674;51.500;7.552;2023-02-28T09:05:29;2.73;;;2.17;;
4986;SDS011;12674;51.500;7.552;2023-02-28T09:07:33;3.40;;;1.80;;
4986;SDS011;12674;51.500;7.552;2023-02-28T09:09:37;6.70;;;2.23;;
4986;SDS011;12674;51.500;7.552;2023-02-28T09:11:55;10.00;;;2.13;;
4986;SDS011;12674;51.500;7.552;2023-02-28T09:14:00;2.23;;;1.80;;
4986;SDS011;12674;51.500;7.552;2023-02-28T09:16:05;3.47;;;2.30;;
4986;SDS011;12674;51.500;7.552;2023-02-28T09:18:09;3.23;;;2.10;;
4986;SDS011;12674;51.500;7.552;2023-02-28T09:20:12;4.10;;;2.27;;
4986;SDS011;12674;51.500;7.552;2023-02-28T09:22:15;6.80;;;2.30;;
4986;SDS011;12674;51.500;7.552;2023-02-28T09:24:18;4.30;;;2.30;;
4986;SDS011;12674;51.500;7.552;2023-02-28T09:26:22;2.50;;;1.87;;
4986;SDS011;12674;51.500;7.552;2023-02-28T09:28:26;3.50;;;1.53;;
4986;SDS011;12674;51.500;7.552;2023-02-28T09:30:30;5.50;;;2.23;;
4986;SDS011;12674;51.500;7.552;2023-02-28T09:32:33;7.90;;;2.07;;
4986;SDS011;12674;51.500;7.552;2023-02-28T09:34:37;16.33;;;2.83;;
4986;SDS011;12674;51.500;7.552;2023-02-28T09:36:40;6.07;;;2.17;;
4986;SDS011;12674;51.500;7.552;2023-02-28T09:38:46;1.90;;;1.80;;
4986;SDS011;12674;51.500;7.552;2023-02-28T09:40:52;4.93;;;2.00;;
4986;SDS011;12674;51.500;7.552;2023-02-28T09:42:55;4.27;;;1.80;;
4986;SDS011;12674;51.500;7.552;2023-02-28T09:45:00;2.80;;;1.60;;
4986;SDS011;12674;51.500;7.552;2023-02-28T09:47:10;2.13;;;1.60;;
4986;SDS011;12674;51.500;7.552;2023-02-28T09:49:16;6.33;;;2.07;;
4986;SDS011;12674;51.500;7.552;2023-02-28T09:51:26;4.60;;;2.13;;
4986;SDS011;12674;51.500;7.552;2023-02-28T09:53:33;4.13;;;2.10;;
4986;SDS011;12674;51.500;7.552;2023-02-28T09:55:42;3.80;;;1.97;;
4986;SDS011;12674;51.500;7.552;2023-02-28T09:57:47;2.90;;;2.00;;
4986;SDS011;12674;51.500;7.552;2023-02-28T09:59:55;3.20;;;1.67;;
4986;SDS011;12674;51.500;7.552;2023-02-28T10:02:17;2.40;;;1.83;;
4986;SDS011;12674;51.500;7.552;2023-02-28T10:04:32;3.33;;;2.10;;
4986;SDS011;12674;51.500;7.552;2023-02-28T10:06:44;3.40;;;1.70;;
4986;SDS011;12674;51.500;7.552;2023-02-28T10:08:50;4.30;;;2.00;;
4986;SDS011;12674;51.500;7.552;2023-02-28T10:10:57;3.20;;;2.10;;
4986;SDS011;12674;51.500;7.552;2023-02-28T10:13:04;4.20;;;1.73;;
4986;SDS011;12674;51.500;7.552;2023-02-28T10:15:09;4.83;;;1.67;;
4986;SDS011;12674;51.500;7.552;2023-02-28T10:17:18;6.27;;;1.77;;
4986;SDS011;12674;51.500;7.552;2023-02-28T10:19:23;10.03;;;1.70;;
4986;SDS011;12674;51.500;7.552;2023-02-28T10:21:30;5.23;;;1.67;;
4986;SDS011;12674;51.500;7.552;2023-02-28T10:23:35;2.03;;;1.57;;
4986;SDS011;12674;51.500;7.552;2023-02-28T10:25:39;2.63;;;1.70;;
4986;SDS011;12674;51.500;7.552;2023-02-28T10:27:43;2.90;;;1.60;;
4986;SDS011;12674;51.500;7.552;2023-02-28T10:29:46;4.50;;;1.70;;
4986;SDS011;12674;51.500;7.552;2023-02-28T10:31:50;2.20;;;1.80;;
4986;SDS011;12674;51.500;7.552;2023-02-28T10:33:55;4.80;;;2.00;;
4986;SDS011;12674;51.500;7.552;2023-02-28T10:35:58;2.03;;;1.53;;
4986;SDS011;12674;51.500;7.552;2023-02-28T10:38:04;2.00;;;1.37;;
4986;SDS011;12674;51.500;7.552;2023-02-28T10:40:31;5.30;;;1.90;;
4986;SDS011;12674;51.500;7.552;2023-02-28T10:42:36;2.17;;;1.33;;
4986;SDS011;12674;51.500;7.552;2023-02-28T10:44:40;2.57;;;1.90;;
4986;SDS011;12674;51.500;7.552;2023-02-28T10:46:43;2.50;;;1.50;;
4986;SDS011;12674;51.500;7.552;2023-02-28T10:48:47;2.13;;;1.50;;
4986;SDS011;12674;51.500;7.552;2023-02-28T10:50:56;3.47;;;1.40;;
4986;SDS011;12674;51.500;7.552;2023-02-28T10:53:05;1.63;;;1.20;;
4986;SDS011;12674;51.500;7.552;2023-02-28T10:55:22;2.73;;;1.73;;
4986;SDS011;12674;51.500;7.552;2023-02-28T10:57:27;2.20;;;1.50;;
4986;SDS011;12674;51.500;7.552;2023-02-28T10:59:34;2.07;;;1.60;;
4986;SDS011;12674;51.500;7.552;2023-02-28T11:01:39;1.87;;;1.40;;
4986;SDS011;12674;51.500;7.552;2023-02-28T11:03:43;2.80;;;1.50;;
4986;SDS011;12674;51.500;7.552;2023-02-28T11:05:46;3.43;;;1.50;;
4986;SDS011;12674;51.500;7.552;2023-02-28T11:07:52;2.20;;;1.73;;
4986;SDS011;12674;51.500;7.552;2023-02-28T11:09:56;2.83;;;1.67;;
4986;SDS011;12674;51.500;7.552;2023-02-28T11:12:00;3.00;;;1.47;;
4986;SDS011;12674;51.500;7.552;2023-02-28T11:14:04;3.03;;;1.70;;
4986;SDS011;12674;51.500;7.552;2023-02-28T11:16:08;3.20;;;1.60;;
4986;SDS011;12674;51.500;7.552;2023-02-28T11:18:19;1.50;;;1.40;;
4986;SDS011;12674;51.500;7.552;2023-02-28T11:20:25;7.50;;;2.00;;
4986;SDS011;12674;51.500;7.552;2023-02-28T11:22:30;2.43;;;1.70;;
4986;SDS011;12674;51.500;7.552;2023-02-28T11:24:40;3.50;;;2.13;;
4986;SDS011;12674;51.500;7.552;2023-02-28T11:26:45;3.67;;;1.60;;
4986;SDS011;12674;51.500;7.552;2023-02-28T11:28:50;5.87;;;1.90;;
4986;SDS011;12674;51.500;7.552;2023-02-28T11:31:15;2.40;;;1.60;;
4986;SDS011;12674;51.500;7.552;2023-02-28T11:33:25;4.00;;;1.67;;
4986;SDS011;12674;51.500;7.552;2023-02-28T11:35:31;3.67;;;1.40;;
4986;SDS011;12674;51.500;7.552;2023-02-28T11:37:36;1.83;;;1.73;;
4986;SDS011;12674;51.500;7.552;2023-02-28T11:39:41;5.43;;;1.77;;
4986;SDS011;12674;51.500;7.552;2023-02-28T11:41:54;3.80;;;1.87;;
4986;SDS011;12674;51.500;7.552;2023-02-28T11:44:10;2.10;;;1.67;;
4986;SDS011;12674;51.500;7.552;2023-02-28T11:46:24;2.90;;;1.80;;
4986;SDS011;12674;51.500;7.552;2023-02-28T11:48:37;3.77;;;1.87;;
4986;SDS011;12674;51.500;7.552;2023-02-28T11:50:47;4.10;;;1.97;;
4986;SDS011;12674;51.500;7.552;2023-02-28T11:52:56;1.53;;;1.43;;
4986;SDS011;12674;51.500;7.552;2023-02-28T11:55:04;2.10;;;1.53;;
4986;SDS011;12674;51.500;7.552;2023-02-28T11:57:18;3.20;;;1.40;;
4986;SDS011;12674;51.500;7.552;2023-02-28T11:59:36;2.47;;;1.40;;
4986;SDS011;12674;51.500;7.552;2023-02-28T12:01:56;4.23;;;1.60;;
4986;SDS011;12674;51.500;7.552;2023-02-28T12:04:13;5.93;;;1.50;;
4986;SDS011;12674;51.500;7.552;2023-02-28T12:06:21;1.53;;;1.40;;
4986;SDS011;12674;51.500;7.552;2023-02-28T12:08:31;1.40;;;1.30;;
4986;SDS011;12674;51.500;7.552;2023-02-28T12:10:52;1.63;;;1.43;;
4986;SDS011;12674;51.500;7.552;2023-02-28T12:13:03;2.90;;;1.60;;
4986;SDS011;12674;51.500;7.552;2023-02-28T12:15:23;2.03;;;1.50;;
4986;SDS011;12674;51.500;7.552;2023-02-28T12:17:35;1.83;;;1.73;;
4986;SDS011;12674;51.500;7.552;2023-02-28T12:19:45;2.10;;;1.67;;
4986;SDS011;12674;51.500;7.552;2023-02-28T12:22:03;5.57;;;2.00;;
4986;SDS011;12674;51.500;7.552;2023-02-28T12:24:22;1.90;;;1.70;;
4986;SDS011;12674;51.500;7.552;2023-02-28T12:26:34;6.47;;;3.57;;
4986;SDS011;12674;51.500;7.552;2023-02-28T12:28:40;6.10;;;1.60;;
4986;SDS011;12674;51.500;7.552;2023-02-28T12:30:47;7.13;;;2.07;;
4986;SDS011;12674;51.500;7.552;2023-02-28T12:32:54;2.57;;;1.80;;
4986;SDS011;12674;51.500;7.552;2023-02-28T12:35:01;4.73;;;1.50;;
4986;SDS011;12674;51.500;7.552;2023-02-28T12:37:07;2.50;;;1.83;;
4986;SDS011;12674;51.500;7.552;2023-02-28T12:39:12;2.00;;;1.33;;
4986;SDS011;12674;51.500;7.552;2023-02-28T12:41:19;2.33;;;1.67;;
4986;SDS011;12674;51.500;7.552;2023-02-28T12:43:31;4.07;;;1.87;;
4986;SDS011;12674;51.500;7.552;2023-02-28T12:45:39;1.93;;;1.80;;
4986;SDS011;12674;51.500;7.552;2023-02-28T12:47:44;2.00;;;1.80;;
4986;SDS011;12674;51.500;7.552;2023-02-28T12:49:50;2.87;;;1.80;;
4986;SDS011;12674;51.500;7.552;2023-02-28T12:51:55;2.17;;;1.67;;
4986;SDS011;12674;51.500;7.552;2023-02-28T12:54:04;2.80;;;1.60;;
4986;SDS011;12674;51.500;7.552;2023-02-28T12:56:13;2.83;;;1.90;;